RYR6898 LOWW-LATI
Flight info
| Callsign | RYR6898 |
|---|---|
| Flight time | N/A |
| Altitude | 37000 |
| Route | ARSIN1D/34 LOWW/34 ARSIN DCT NALOX DCT OSDUK DCT VIBOP DCT AKIKA DCT INLOT |
| Aircraft | B738/M-SDE2E3FGHIRWXY/LB1 |
Departure
| Time | N/A |
|---|---|
| Airport | Vienna International Airport (LOWW) |
Arrival
| Time | 2026-05-01 12:06 |
|---|---|
| Airport | Tirana International Airport Mother Teresa (LATI) |
| Time | Latitude | Longitude | Altitude | Speed | Heading |
|---|---|---|---|---|---|
| 2026-05-01 11:07 | 46.85022 | 16.83969 | 31969 ft | 476 kts | 152° |
| 2026-05-01 11:07 | 46.81971 | 16.85774 | 32345 ft | 469 kts | 146° |
| 2026-05-01 11:08 | 46.79128 | 16.87982 | 32720 ft | 462 kts | 139° |
| 2026-05-01 11:08 | 46.76495 | 16.90592 | 33278 ft | 449 kts | 133° |
| 2026-05-01 11:08 | 46.72026 | 16.96755 | 34144 ft | 429 kts | 120° |
| 2026-05-01 11:09 | 46.70128 | 17.00085 | 34412 ft | 428 kts | 119° |
| 2026-05-01 11:09 | 46.68194 | 17.03445 | 34786 ft | 429 kts | 121° |
| 2026-05-01 11:09 | 46.66191 | 17.06672 | 34992 ft | 434 kts | 123° |
| 2026-05-01 11:10 | 46.61841 | 17.12859 | 35400 ft | 442 kts | 128° |
| 2026-05-01 11:10 | 46.59543 | 17.15846 | 35649 ft | 444 kts | 129° |
| 2026-05-01 11:10 | 46.57190 | 17.18811 | 35821 ft | 445 kts | 130° |
| 2026-05-01 11:10 | 46.54842 | 17.21727 | 35932 ft | 448 kts | 130° |
| 2026-05-01 11:11 | 46.52457 | 17.24662 | 36087 ft | 450 kts | 131° |
| 2026-05-01 11:11 | 46.50071 | 17.27581 | 36354 ft | 448 kts | 131° |
| 2026-05-01 11:11 | 46.47707 | 17.30461 | 36597 ft | 449 kts | 131° |
| 2026-05-01 11:11 | 46.45311 | 17.33385 | 36757 ft | 451 kts | 131° |
| 2026-05-01 11:12 | 46.42897 | 17.36330 | 36974 ft | 452 kts | 131° |
| 2026-05-01 11:12 | 46.40483 | 17.39270 | 37217 ft | 452 kts | 132° |
| 2026-05-01 11:12 | 46.38096 | 17.42175 | 37318 ft | 454 kts | 132° |
| 2026-05-01 11:12 | 46.35657 | 17.45140 | 37341 ft | 456 kts | 132° |
| 2026-05-01 11:13 | 46.30846 | 17.50971 | 37347 ft | 453 kts | 132° |
| 2026-05-01 11:13 | 46.26026 | 17.56802 | 37340 ft | 452 kts | 133° |
| 2026-05-01 11:14 | 46.21249 | 17.62572 | 37341 ft | 452 kts | 133° |
| 2026-05-01 11:14 | 46.16415 | 17.68399 | 37332 ft | 455 kts | 133° |
| 2026-05-01 11:15 | 46.11557 | 17.74242 | 37431 ft | 455 kts | 133° |
| 2026-05-01 11:15 | 46.09149 | 17.77130 | 37220 ft | 451 kts | 133° |
| 2026-05-01 11:15 | 46.06752 | 17.79997 | 37400 ft | 452 kts | 133° |
| 2026-05-01 11:16 | 46.01908 | 17.85802 | 37324 ft | 452 kts | 133° |
| 2026-05-01 11:16 | 45.97112 | 17.91525 | 37316 ft | 451 kts | 133° |
| 2026-05-01 11:17 | 45.92272 | 17.97290 | 37293 ft | 452 kts | 133° |
| 2026-05-01 11:17 | 45.87454 | 18.03023 | 37307 ft | 453 kts | 134° |
| 2026-05-01 11:18 | 45.82601 | 18.08776 | 37336 ft | 454 kts | 134° |
| 2026-05-01 11:18 | 45.77562 | 18.14268 | 37311 ft | 460 kts | 141° |
| 2026-05-01 11:19 | 45.72018 | 18.18860 | 37327 ft | 467 kts | 146° |
| 2026-05-01 11:19 | 45.66259 | 18.23147 | 37318 ft | 467 kts | 147° |
| 2026-05-01 11:20 | 45.60513 | 18.27385 | 37322 ft | 466 kts | 147° |
| 2026-05-01 11:20 | 45.54780 | 18.31653 | 37334 ft | 467 kts | 147° |
| 2026-05-01 11:21 | 45.49019 | 18.35979 | 37328 ft | 469 kts | 147° |
| 2026-05-01 11:21 | 45.43276 | 18.40299 | 37324 ft | 466 kts | 147° |
| 2026-05-01 11:22 | 45.37577 | 18.44588 | 37321 ft | 468 kts | 147° |
| 2026-05-01 11:22 | 45.31829 | 18.48915 | 37330 ft | 469 kts | 147° |
| 2026-05-01 11:23 | 45.26086 | 18.53220 | 37324 ft | 469 kts | 147° |
| 2026-05-01 11:23 | 45.20336 | 18.57523 | 37325 ft | 468 kts | 147° |
| 2026-05-01 11:24 | 45.14592 | 18.61810 | 37316 ft | 469 kts | 147° |
| 2026-05-01 11:25 | 45.05920 | 18.68272 | 37323 ft | 472 kts | 148° |
| 2026-05-01 11:25 | 44.97015 | 18.74029 | 37315 ft | 474 kts | 159° |
| 2026-05-01 11:26 | 44.87455 | 18.77666 | 37308 ft | 475 kts | 163° |
| 2026-05-01 11:27 | 44.81008 | 18.79890 | 37295 ft | 476 kts | 163° |
| 2026-05-01 11:27 | 44.74608 | 18.82150 | 37298 ft | 476 kts | 163° |
| 2026-05-01 11:28 | 44.68178 | 18.84468 | 37297 ft | 476 kts | 163° |
| 2026-05-01 11:28 | 44.61793 | 18.86791 | 37290 ft | 477 kts | 163° |
| 2026-05-01 11:29 | 44.52184 | 18.90298 | 37295 ft | 475 kts | 163° |
| 2026-05-01 11:30 | 44.42622 | 18.93779 | 37299 ft | 477 kts | 163° |
| 2026-05-01 11:30 | 44.36214 | 18.96102 | 37285 ft | 477 kts | 163° |
| 2026-05-01 11:31 | 44.29821 | 18.98418 | 37286 ft | 476 kts | 163° |
| 2026-05-01 11:31 | 44.23453 | 19.00722 | 37278 ft | 474 kts | 163° |
| 2026-05-01 11:32 | 44.17047 | 19.03032 | 37258 ft | 476 kts | 164° |
| 2026-05-01 11:32 | 44.10673 | 19.05326 | 37245 ft | 475 kts | 164° |
| 2026-05-01 11:33 | 44.04269 | 19.07626 | 37230 ft | 475 kts | 164° |
| 2026-05-01 11:33 | 43.97902 | 19.09912 | 37225 ft | 476 kts | 164° |
| 2026-05-01 11:34 | 43.91507 | 19.12201 | 37233 ft | 476 kts | 164° |
| 2026-05-01 11:34 | 43.85115 | 19.14482 | 37240 ft | 475 kts | 164° |
| 2026-05-01 11:35 | 43.78694 | 19.16767 | 37248 ft | 475 kts | 165° |
| 2026-05-01 11:35 | 43.72329 | 19.19028 | 37254 ft | 475 kts | 165° |
| 2026-05-01 11:36 | 43.65937 | 19.21293 | 37241 ft | 475 kts | 165° |
| 2026-05-01 11:36 | 43.59549 | 19.23553 | 37224 ft | 475 kts | 165° |
| 2026-05-01 11:37 | 43.53153 | 19.25809 | 37210 ft | 476 kts | 165° |
| 2026-05-01 11:37 | 43.46764 | 19.28057 | 37207 ft | 475 kts | 165° |
| 2026-05-01 11:38 | 43.40373 | 19.30301 | 37192 ft | 474 kts | 165° |
| 2026-05-01 11:38 | 43.34017 | 19.32529 | 37179 ft | 474 kts | 165° |
| 2026-05-01 11:39 | 43.27619 | 19.34767 | 37166 ft | 474 kts | 165° |
| 2026-05-01 11:39 | 43.21237 | 19.36996 | 37163 ft | 474 kts | 166° |
| 2026-05-01 11:40 | 43.14870 | 19.39213 | 37154 ft | 474 kts | 166° |
| 2026-05-01 11:40 | 43.08488 | 19.41431 | 37168 ft | 471 kts | 166° |
| 2026-05-01 11:41 | 43.02127 | 19.43637 | 37174 ft | 473 kts | 166° |
| 2026-05-01 11:41 | 42.95767 | 19.45837 | 37180 ft | 471 kts | 166° |
| 2026-05-01 11:42 | 42.89421 | 19.48028 | 37174 ft | 473 kts | 166° |
| 2026-05-01 11:42 | 42.86258 | 19.49118 | 36984 ft | 469 kts | 166° |
| 2026-05-01 11:42 | 42.83092 | 19.50209 | 36558 ft | 467 kts | 166° |
| 2026-05-01 11:42 | 42.79951 | 19.51290 | 35989 ft | 468 kts | 166° |
| 2026-05-01 11:43 | 42.76805 | 19.52371 | 35330 ft | 471 kts | 166° |
| 2026-05-01 11:43 | 42.73627 | 19.53462 | 34620 ft | 475 kts | 166° |
| 2026-05-01 11:43 | 42.70419 | 19.54561 | 33872 ft | 479 kts | 166° |
| 2026-05-01 11:44 | 42.63936 | 19.56780 | 32551 ft | 486 kts | 166° |
| 2026-05-01 11:44 | 42.60661 | 19.57900 | 32048 ft | 484 kts | 166° |
| 2026-05-01 11:44 | 42.57451 | 19.58944 | 31905 ft | 472 kts | 167° |
| 2026-05-01 11:44 | 42.54262 | 19.59660 | 31747 ft | 459 kts | 174° |
| 2026-05-01 11:45 | 42.51083 | 19.59706 | 31519 ft | 449 kts | 185° |
| 2026-05-01 11:45 | 42.48031 | 19.59210 | 31114 ft | 447 kts | 189° |
| 2026-05-01 11:45 | 42.44961 | 19.58454 | 30690 ft | 443 kts | 192° |
| 2026-05-01 11:45 | 42.41967 | 19.57604 | 30228 ft | 439 kts | 193° |
| 2026-05-01 11:46 | 42.39016 | 19.56727 | 29810 ft | 434 kts | 193° |
| 2026-05-01 11:46 | 42.36088 | 19.55854 | 29309 ft | 430 kts | 193° |
| 2026-05-01 11:46 | 42.33189 | 19.55001 | 28798 ft | 427 kts | 192° |
| 2026-05-01 11:46 | 42.30284 | 19.54162 | 28312 ft | 422 kts | 192° |
| 2026-05-01 11:47 | 42.27430 | 19.53350 | 27615 ft | 417 kts | 192° |
| 2026-05-01 11:47 | 42.24590 | 19.52552 | 26876 ft | 413 kts | 192° |
| 2026-05-01 11:47 | 42.21819 | 19.51781 | 26208 ft | 408 kts | 192° |
| 2026-05-01 11:47 | 42.19061 | 19.51019 | 25529 ft | 403 kts | 192° |
| 2026-05-01 11:48 | 42.16338 | 19.50273 | 24792 ft | 399 kts | 191° |
| 2026-05-01 11:48 | 42.13611 | 19.49526 | 24033 ft | 396 kts | 191° |
| 2026-05-01 11:48 | 42.10950 | 19.48798 | 23295 ft | 392 kts | 191° |
| 2026-05-01 11:48 | 42.08280 | 19.48070 | 22595 ft | 387 kts | 191° |
| 2026-05-01 11:49 | 42.05669 | 19.47362 | 22036 ft | 384 kts | 191° |
| 2026-05-01 11:49 | 42.03088 | 19.46664 | 21517 ft | 381 kts | 191° |
| 2026-05-01 11:49 | 42.00480 | 19.46018 | 20937 ft | 380 kts | 188° |
| 2026-05-01 11:49 | 41.97854 | 19.45676 | 20264 ft | 380 kts | 180° |
| 2026-05-01 11:50 | 41.95221 | 19.45861 | 19711 ft | 377 kts | 172° |
| 2026-05-01 11:50 | 41.92629 | 19.46354 | 19195 ft | 373 kts | 169° |
| 2026-05-01 11:50 | 41.90097 | 19.46968 | 18686 ft | 370 kts | 167° |
| 2026-05-01 11:50 | 41.87595 | 19.47625 | 18180 ft | 367 kts | 167° |
| 2026-05-01 11:51 | 41.85091 | 19.48285 | 17664 ft | 365 kts | 167° |
| 2026-05-01 11:51 | 41.82608 | 19.48919 | 17154 ft | 362 kts | 168° |
| 2026-05-01 11:51 | 41.80173 | 19.49521 | 16644 ft | 360 kts | 168° |
| 2026-05-01 11:51 | 41.77708 | 19.50117 | 16133 ft | 357 kts | 168° |
| 2026-05-01 11:52 | 41.75273 | 19.50699 | 15627 ft | 355 kts | 169° |
| 2026-05-01 11:52 | 41.72845 | 19.51274 | 15135 ft | 353 kts | 169° |
| 2026-05-01 11:52 | 41.70424 | 19.51847 | 14616 ft | 352 kts | 169° |
| 2026-05-01 11:52 | 41.68042 | 19.52410 | 14110 ft | 349 kts | 169° |
| 2026-05-01 11:53 | 41.65670 | 19.52969 | 13608 ft | 348 kts | 168° |
| 2026-05-01 11:53 | 41.63277 | 19.53525 | 13048 ft | 347 kts | 169° |
| 2026-05-01 11:53 | 41.60910 | 19.53952 | 12474 ft | 347 kts | 172° |
| 2026-05-01 11:53 | 41.58502 | 19.54274 | 11970 ft | 345 kts | 173° |
| 2026-05-01 11:54 | 41.56131 | 19.54554 | 11462 ft | 342 kts | 173° |
| 2026-05-01 11:54 | 41.53783 | 19.54835 | 10966 ft | 340 kts | 173° |
| 2026-05-01 11:54 | 41.51427 | 19.55130 | 10547 ft | 334 kts | 173° |
| 2026-05-01 11:54 | 41.49173 | 19.55423 | 10349 ft | 322 kts | 172° |
| 2026-05-01 11:55 | 41.46983 | 19.55715 | 10259 ft | 308 kts | 172° |
| 2026-05-01 11:55 | 41.44900 | 19.55996 | 10025 ft | 300 kts | 172° |
| 2026-05-01 11:55 | 41.42806 | 19.56282 | 9599 ft | 300 kts | 172° |
| 2026-05-01 11:55 | 41.40741 | 19.56565 | 9093 ft | 301 kts | 172° |
| 2026-05-01 11:56 | 41.38685 | 19.56845 | 8707 ft | 293 kts | 172° |
| 2026-05-01 11:56 | 41.36683 | 19.57114 | 8348 ft | 284 kts | 172° |
| 2026-05-01 11:56 | 41.34758 | 19.57372 | 8016 ft | 276 kts | 171° |
| 2026-05-01 11:56 | 41.32857 | 19.57628 | 7691 ft | 270 kts | 171° |
| 2026-05-01 11:57 | 41.31021 | 19.57877 | 7352 ft | 267 kts | 171° |
| 2026-05-01 11:57 | 41.29171 | 19.58125 | 7011 ft | 263 kts | 171° |
| 2026-05-01 11:57 | 41.27369 | 19.58365 | 6683 ft | 258 kts | 170° |
| 2026-05-01 11:57 | 41.25614 | 19.58602 | 6360 ft | 251 kts | 170° |
| 2026-05-01 11:58 | 41.23911 | 19.58834 | 6034 ft | 244 kts | 170° |
| 2026-05-01 11:58 | 41.22253 | 19.59056 | 5756 ft | 236 kts | 170° |
| 2026-05-01 11:58 | 41.19249 | 19.60120 | 5197 ft | 214 kts | 138° |
| 2026-05-01 11:59 | 41.18321 | 19.61558 | 4953 ft | 202 kts | 117° |
| 2026-05-01 11:59 | 41.17743 | 19.63228 | 4693 ft | 196 kts | 104° |
| 2026-05-01 11:59 | 41.17603 | 19.64969 | 4446 ft | 188 kts | 83° |
| 2026-05-01 12:00 | 41.17907 | 19.68253 | 4210 ft | 166 kts | 83° |
| 2026-05-01 12:00 | 41.18018 | 19.69724 | 4165 ft | 160 kts | 83° |
| 2026-05-01 12:00 | 41.18329 | 19.72678 | 4056 ft | 161 kts | 70° |
| 2026-05-01 12:01 | 41.18972 | 19.73884 | 3988 ft | 164 kts | 42° |
| 2026-05-01 12:01 | 41.19984 | 19.74628 | 3848 ft | 170 kts | 24° |
| 2026-05-01 12:01 | 41.21140 | 19.74823 | 3652 ft | 171 kts | 360° |
| 2026-05-01 12:01 | 41.22306 | 19.74559 | 3458 ft | 166 kts | 358° |
| 2026-05-01 12:02 | 41.23418 | 19.74381 | 3293 ft | 155 kts | 2° |
| 2026-05-01 12:02 | 41.24478 | 19.74289 | 3135 ft | 153 kts | 2° |
| 2026-05-01 12:02 | 41.25544 | 19.74158 | 2972 ft | 154 kts | 360° |
| 2026-05-01 12:02 | 41.26606 | 19.73978 | 2801 ft | 153 kts | 359° |
| 2026-05-01 12:03 | 41.27666 | 19.73841 | 2650 ft | 152 kts | 1° |
| 2026-05-01 12:03 | 41.28733 | 19.73726 | 2494 ft | 155 kts | 0° |
| 2026-05-01 12:03 | 41.29787 | 19.73583 | 2327 ft | 151 kts | 360° |
| 2026-05-01 12:03 | 41.30834 | 19.73449 | 2172 ft | 151 kts | 0° |
| 2026-05-01 12:04 | 41.31882 | 19.73307 | 2022 ft | 154 kts | 359° |
| 2026-05-01 12:04 | 41.32952 | 19.73153 | 1776 ft | 152 kts | 359° |
| 2026-05-01 12:04 | 41.33986 | 19.72986 | 1533 ft | 150 kts | 356° |
| 2026-05-01 12:04 | 41.35014 | 19.72770 | 1254 ft | 149 kts | 354° |
| 2026-05-01 12:05 | 41.36024 | 19.72628 | 1064 ft | 144 kts | 4° |
| 2026-05-01 12:05 | 41.38047 | 19.72479 | 714 ft | 148 kts | 359° |
| 2026-05-01 12:05 | 41.39090 | 19.72333 | 441 ft | 151 kts | 360° |
| 2026-05-01 12:06 | 41.40137 | 19.72218 | 199 ft | 147 kts | 357° |
| 2026-05-01 12:06 | 41.41048 | 19.72117 | 129 ft | 99 kts | 356° |
| 2026-05-01 12:06 | 41.41550 | 19.72049 | 124 ft | 54 kts | 354° |
| 2026-05-01 12:06 | 41.41811 | 19.72015 | 121 ft | 22 kts | 354° |
| 2026-05-01 12:07 | 41.41876 | 19.71949 | 119 ft | 11 kts | 274° |
| 2026-05-01 12:07 | 41.41875 | 19.71852 | 119 ft | 9 kts | 262° |
| 2026-05-01 12:07 | 41.41866 | 19.71766 | 119 ft | 8 kts | 263° |
| 2026-05-01 12:07 | 41.41861 | 19.71692 | 119 ft | 7 kts | 265° |
| 2026-05-01 12:08 | 41.41855 | 19.71630 | 119 ft | 6 kts | 253° |
| 2026-05-01 12:08 | 41.41839 | 19.71584 | 120 ft | 4 kts | 252° |
| 2026-05-01 12:08 | 41.41835 | 19.71548 | 120 ft | 3 kts | 262° |
| 2026-05-01 12:08 | 41.41833 | 19.71535 | 120 ft | 0 kts | 263° |